Time;durP1;ratioP1;P1;durP2;ratioP2;P2;SDS_P1;SDS_P2;PMS_P1;PMS_P2;Temp;Humidity;BMP_temperature;BMP_pressure;BME280_temperature;BME280_humidity;BME280_pressure;Samples;Min_cycle;Max_cycle;Signal;HPM_P1;HPM_P2
2022/11/26 00:00:57;;;;;;;20.23;12.30;;;4.00;99.90;;;;;;5093076;28;20044;-78
2022/11/26 00:03:23;;;;;;;23.30;12.80;;;3.90;99.90;;;;;;5084766;28;20051;-78
2022/11/26 00:05:52;;;;;;;23.45;11.63;;;3.90;99.90;;;;;;5071992;28;20036;-79
2022/11/26 00:08:26;;;;;;;25.25;14.23;;;3.80;99.90;;;;;;5079985;28;20035;-79
2022/11/26 00:10:53;;;;;;;30.75;13.93;;;3.80;99.90;;;;;;5091926;28;20035;-79
2022/11/26 00:13:23;;;;;;;25.75;14.00;;;3.70;99.90;;;;;;5092889;28;20040;-79
2022/11/26 00:15:50;;;;;;;27.90;13.30;;;3.70;99.90;;;;;;5072473;28;20070;-79
2022/11/26 00:18:17;;;;;;;21.80;11.23;;;3.70;99.90;;;;;;5092154;28;20036;-78
2022/11/26 00:20:45;;;;;;;21.63;12.48;;;3.60;99.90;;;;;;5088305;28;20036;-78
2022/11/26 00:23:20;;;;;;;23.75;12.90;;;3.60;99.90;;;;;;5092908;28;20043;-79
2022/11/26 00:25:49;;;;;;;23.58;12.95;;;3.70;99.90;;;;;;5090736;28;20134;-79
2022/11/26 00:28:29;;;;;;;21.60;11.88;;;3.60;99.90;;;;;;5083397;28;20051;-78
2022/11/26 00:30:58;;;;;;;26.70;12.77;;;3.60;99.90;;;;;;5072703;28;20036;-79
2022/11/26 00:33:26;;;;;;;28.65;13.23;;;3.60;99.90;;;;;;5087735;28;20044;-78
2022/11/26 00:36:06;;;;;;;25.88;13.73;;;3.50;99.90;;;;;;5086616;28;20544;-78
2022/11/26 00:38:32;;;;;;;27.25;13.60;;;3.40;99.90;;;;;;5080155;28;20025;-80
2022/11/26 00:40:58;;;;;;;22.42;12.85;;;3.40;99.90;;;;;;5090293;28;20039;-78
2022/11/26 00:43:24;;;;;;;24.52;13.00;;;3.30;99.90;;;;;;5081951;28;20033;-78
2022/11/26 00:45:51;;;;;;;24.48;14.85;;;3.30;99.90;;;;;;5081374;28;20044;-79
2022/11/26 00:48:18;;;;;;;30.27;15.43;;;3.40;99.90;;;;;;5090531;28;20397;-78
2022/11/26 00:50:48;;;;;;;29.05;16.50;;;3.50;99.90;;;;;;5091847;28;20463;-78
2022/11/26 00:53:17;;;;;;;27.17;16.30;;;3.60;99.90;;;;;;5092401;28;20032;-77
2022/11/26 00:55:47;;;;;;;33.03;16.67;;;3.60;99.90;;;;;;5072912;28;20032;-77
2022/11/26 00:58:28;;;;;;;33.33;17.63;;;3.50;99.90;;;;;;5072445;28;20033;-78
2022/11/26 01:00:59;;;;;;;23.83;14.63;;;3.40;99.90;;;;;;5082942;28;20068;-78
2022/11/26 01:03:25;;;;;;;28.85;17.40;;;3.50;99.90;;;;;;5076770;28;20040;-78
2022/11/26 01:05:57;;;;;;;23.35;12.80;;;3.40;99.90;;;;;;5088425;28;20771;-78
2022/11/26 01:08:37;;;;;;;26.88;13.25;;;3.30;99.90;;;;;;5092065;28;20389;-78
2022/11/26 01:11:04;;;;;;;23.40;13.23;;;3.30;99.90;;;;;;5083845;28;20377;-78
2022/11/26 01:13:31;;;;;;;26.92;15.10;;;3.30;99.90;;;;;;5072281;28;20044;-79
2022/11/26 01:15:59;;;;;;;25.83;13.77;;;3.30;99.90;;;;;;5070851;28;20051;-78
2022/11/26 01:18:26;;;;;;;24.30;12.85;;;3.30;99.90;;;;;;5070942;28;20048;-78
2022/11/26 01:20:52;;;;;;;25.25;13.93;;;3.20;99.90;;;;;;5091285;28;20098;-78
2022/11/26 01:23:20;;;;;;;21.92;13.32;;;3.20;99.90;;;;;;5090156;28;20040;-78
2022/11/26 01:25:47;;;;;;;27.33;14.93;;;3.10;99.90;;;;;;5083815;28;20044;-78
2022/11/26 01:28:16;;;;;;;25.20;12.45;;;3.10;99.90;;;;;;5077504;28;20032;-78
2022/11/26 01:30:43;;;;;;;20.77;12.50;;;3.10;99.90;;;;;;5073391;28;20480;-78
2022/11/26 01:33:09;;;;;;;21.13;12.20;;;3.10;99.90;;;;;;5074498;28;20040;-78
2022/11/26 01:35:36;;;;;;;22.08;11.77;;;3.10;99.90;;;;;;5087442;28;20688;-80
2022/11/26 01:38:03;;;;;;;19.38;12.23;;;3.20;99.90;;;;;;5085398;28;20029;-78
2022/11/26 01:40:56;;;;;;;26.23;13.30;;;3.20;99.90;;;;;;5077094;28;20039;-78
2022/11/26 01:43:28;;;;;;;25.70;13.55;;;3.30;99.90;;;;;;5092259;28;20036;-78
2022/11/26 01:45:55;;;;;;;24.70;13.05;;;3.20;99.90;;;;;;5075436;28;20446;-78
2022/11/26 01:48:32;;;;;;;21.45;12.32;;;3.20;99.90;;;;;;5072437;28;20035;-78
2022/11/26 01:51:06;;;;;;;18.88;12.57;;;3.30;99.90;;;;;;5074964;28;20032;-77
2022/11/26 01:53:37;;;;;;;21.30;12.88;;;3.30;99.90;;;;;;5076507;28;20041;-78
2022/11/26 01:56:34;;;;;;;22.45;11.90;;;3.30;99.90;;;;;;5089931;28;20389;-78
2022/11/26 01:59:16;;;;;;;20.60;12.30;;;3.30;99.90;;;;;;5082659;28;20052;-78
2022/11/26 02:01:42;;;;;;;20.50;11.40;;;3.40;99.90;;;;;;5075247;28;20370;-78
2022/11/26 02:04:17;;;;;;;22.10;11.98;;;3.40;99.90;;;;;;5083257;28;20028;-78
2022/11/26 02:06:45;;;;;;;23.45;11.93;;;3.40;99.90;;;;;;5079442;28;20040;-78
2022/11/26 02:09:13;;;;;;;24.33;13.07;;;3.40;99.90;;;;;;5084632;28;20044;-78
2022/11/26 02:11:39;;;;;;;19.42;11.98;;;3.40;99.90;;;;;;5092032;28;20036;-79
2022/11/26 02:14:28;;;;;;;24.45;14.27;;;3.40;99.90;;;;;;5079542;28;20040;-78
2022/11/26 02:17:00;;;;;;;24.50;12.75;;;3.50;99.90;;;;;;5085699;28;20036;-78
2022/11/26 02:20:05;;;;;;;23.85;12.85;;;3.50;99.90;;;;;;5085025;28;20085;-78
2022/11/26 02:23:05;;;;;;;26.30;12.95;;;3.60;99.90;;;;;;5068427;28;20041;-78
2022/11/26 02:25:55;;;;;;;20.63;13.38;;;3.60;99.90;;;;;;5071052;28;20033;-78
2022/11/26 02:28:38;;;;;;;17.08;11.48;;;3.70;99.90;;;;;;5079821;28;20044;-78
2022/11/26 02:31:10;;;;;;;21.48;10.90;;;3.70;99.90;;;;;;5094002;28;20036;-78
2022/11/26 02:34:04;;;;;;;24.02;10.98;;;3.70;99.90;;;;;;5094171;28;20381;-79
2022/11/26 02:36:58;;;;;;;20.90;10.23;;;3.70;99.90;;;;;;5068352;28;20060;-78
2022/11/26 02:39:28;;;;;;;17.95;10.73;;;3.70;99.90;;;;;;5090176;28;20036;-78
2022/11/26 02:41:57;;;;;;;15.65;9.77;;;3.70;99.90;;;;;;5072388;28;20044;-78
2022/11/26 02:44:29;;;;;;;16.77;10.35;;;3.70;99.90;;;;;;5092685;28;20051;-79
2022/11/26 02:47:08;;;;;;;15.85;8.57;;;3.60;99.90;;;;;;5090819;28;20043;-78
2022/11/26 02:49:36;;;;;;;19.00;9.45;;;3.60;99.90;;;;;;5094001;28;20036;-78
2022/11/26 02:52:05;;;;;;;15.48;9.40;;;3.60;99.90;;;;;;5075538;28;20047;-78
2022/11/26 02:54:33;;;;;;;17.35;10.07;;;3.50;99.90;;;;;;5094135;28;20047;-78
2022/11/26 02:57:04;;;;;;;20.85;11.18;;;3.50;99.90;;;;;;5090524;28;20016;-78
2022/11/26 02:59:31;;;;;;;17.90;9.52;;;3.60;99.90;;;;;;5093058;28;20405;-78
2022/11/26 03:02:07;;;;;;;19.27;9.35;;;3.60;99.90;;;;;;5091708;28;20098;-78
2022/11/26 03:04:39;;;;;;;17.27;9.43;;;3.70;99.90;;;;;;5093559;28;20036;-78
2022/11/26 03:07:08;;;;;;;19.25;10.18;;;3.70;99.90;;;;;;5091657;28;20032;-78
2022/11/26 03:09:39;;;;;;;15.90;9.80;;;3.70;99.90;;;;;;5075101;28;20032;-78
2022/11/26 03:12:06;;;;;;;16.80;9.25;;;3.60;99.90;;;;;;5093134;28;20047;-78
2022/11/26 03:14:32;;;;;;;16.00;9.50;;;3.60;99.90;;;;;;5093031;28;20040;-78
2022/11/26 03:16:58;;;;;;;16.17;9.15;;;3.60;99.90;;;;;;5090773;28;20024;-78
2022/11/26 03:19:24;;;;;;;18.33;10.32;;;3.60;99.90;;;;;;5091153;28;20043;-78
2022/11/26 03:21:50;;;;;;;22.55;10.48;;;3.60;99.90;;;;;;5090553;28;20036;-78
2022/11/26 03:24:16;;;;;;;15.40;9.35;;;3.60;99.90;;;;;;5084833;28;20029;-78
2022/11/26 03:26:42;;;;;;;20.23;9.43;;;3.50;99.90;;;;;;5071226;28;20035;-78
2022/11/26 03:29:09;;;;;;;18.33;10.95;;;3.60;99.90;;;;;;5074787;28;20043;-78
2022/11/26 03:31:35;;;;;;;23.77;10.65;;;3.60;99.90;;;;;;5093058;28;20051;-78
2022/11/26 03:34:01;;;;;;;17.15;10.07;;;3.60;99.90;;;;;;5089883;28;20044;-78
2022/11/26 03:36:27;;;;;;;19.48;10.95;;;3.60;99.90;;;;;;5078602;28;20036;-78
2022/11/26 03:38:53;;;;;;;19.50;10.68;;;3.60;99.90;;;;;;5090519;28;20040;-78
2022/11/26 03:41:19;;;;;;;16.65;9.27;;;3.60;99.90;;;;;;5092782;28;20032;-78
2022/11/26 03:43:46;;;;;;;18.60;9.93;;;3.60;99.90;;;;;;5091788;28;20032;-78
2022/11/26 03:46:12;;;;;;;22.30;11.40;;;3.60;99.90;;;;;;5091547;28;20389;-78
2022/11/26 03:48:38;;;;;;;17.92;9.85;;;3.60;99.90;;;;;;5091906;28;20366;-79
2022/11/26 03:51:05;;;;;;;16.80;9.07;;;3.50;99.90;;;;;;5091673;28;20024;-78
2022/11/26 03:53:31;;;;;;;20.80;9.75;;;3.40;99.90;;;;;;5079826;28;20059;-78
2022/11/26 03:55:57;;;;;;;22.45;9.73;;;3.30;99.90;;;;;;5088390;28;20028;-78
2022/11/26 03:58:23;;;;;;;16.52;8.88;;;3.20;99.90;;;;;;5081599;28;20037;-78
2022/11/26 04:00:49;;;;;;;21.63;8.75;;;3.20;99.90;;;;;;5071441;28;20053;-78
2022/11/26 04:03:16;;;;;;;22.92;9.70;;;3.20;99.90;;;;;;5076007;28;20086;-78
2022/11/26 04:05:42;;;;;;;18.90;8.80;;;3.20;99.90;;;;;;5088015;28;20039;-80
2022/11/26 04:08:08;;;;;;;17.55;8.60;;;3.10;99.90;;;;;;5077921;28;20037;-78
2022/11/26 04:10:35;;;;;;;18.42;9.75;;;3.10;99.90;;;;;;5072782;28;20040;-78
2022/11/26 04:13:01;;;;;;;15.35;8.18;;;3.00;99.90;;;;;;5085985;28;20036;-78
2022/11/26 04:15:28;;;;;;;14.35;7.97;;;3.00;99.90;;;;;;5089507;28;20044;-78
2022/11/26 04:17:54;;;;;;;15.38;8.82;;;3.00;99.90;;;;;;5090152;28;20044;-78
2022/11/26 04:20:21;;;;;;;18.63;9.00;;;2.90;99.90;;;;;;5092051;28;20036;-78
2022/11/26 04:22:47;;;;;;;15.35;8.25;;;2.90;99.90;;;;;;5085107;28;20032;-78
2022/11/26 04:25:13;;;;;;;20.92;8.18;;;2.90;99.90;;;;;;5072588;28;20044;-79
2022/11/26 04:27:39;;;;;;;20.17;9.57;;;2.80;99.90;;;;;;5091640;28;20458;-78
2022/11/26 04:30:06;;;;;;;16.67;8.70;;;2.80;99.90;;;;;;5083920;28;20063;-78
2022/11/26 04:32:33;;;;;;;15.68;8.75;;;2.80;99.90;;;;;;5067263;28;20028;-78
2022/11/26 04:34:59;;;;;;;15.98;8.38;;;2.70;99.90;;;;;;5064864;28;20552;-78
2022/11/26 04:37:25;;;;;;;18.60;9.73;;;2.70;99.90;;;;;;5072375;28;20033;-79
2022/11/26 04:39:51;;;;;;;16.27;8.57;;;2.60;99.90;;;;;;5071496;28;20033;-78
2022/11/26 04:42:17;;;;;;;16.45;7.90;;;2.50;99.90;;;;;;5071490;28;20039;-78
2022/11/26 04:44:43;;;;;;;16.67;8.70;;;2.50;99.90;;;;;;5083198;28;20032;-80
2022/11/26 04:47:10;;;;;;;16.50;8.30;;;2.50;99.90;;;;;;5091335;28;20449;-78
2022/11/26 04:49:36;;;;;;;21.70;9.13;;;2.40;99.90;;;;;;5090768;28;20377;-78
2022/11/26 04:52:02;;;;;;;16.98;9.32;;;2.40;99.90;;;;;;5084659;28;20032;-79
2022/11/26 04:54:28;;;;;;;20.75;9.20;;;2.40;99.90;;;;;;5071867;28;20043;-78
2022/11/26 04:56:54;;;;;;;16.17;8.90;;;2.40;99.90;;;;;;5070265;28;20366;-78
2022/11/26 04:59:20;;;;;;;16.95;8.25;;;2.40;99.90;;;;;;5070683;28;20128;-78
2022/11/26 05:01:47;;;;;;;18.05;8.90;;;2.30;99.90;;;;;;5090166;28;20036;-79
2022/11/26 05:04:13;;;;;;;14.75;8.95;;;2.30;99.90;;;;;;5090525;28;20035;-79
2022/11/26 05:06:39;;;;;;;17.92;8.80;;;2.30;99.90;;;;;;5080393;28;20036;-78
2022/11/26 05:09:05;;;;;;;18.10;8.43;;;2.30;99.90;;;;;;5087088;28;20043;-79
2022/11/26 05:11:31;;;;;;;22.23;9.38;;;2.30;99.90;;;;;;5089840;28;20044;-78
2022/11/26 05:13:57;;;;;;;17.27;8.93;;;2.40;99.90;;;;;;5081507;28;20051;-78
2022/11/26 05:16:23;;;;;;;16.27;9.20;;;2.40;99.90;;;;;;5070393;28;20048;-78
2022/11/26 05:18:50;;;;;;;13.38;8.55;;;2.30;99.90;;;;;;5072477;28;20036;-78
2022/11/26 05:21:16;;;;;;;19.00;9.70;;;2.30;99.90;;;;;;5092588;28;20028;-78
2022/11/26 05:23:42;;;;;;;31.92;15.90;;;2.40;99.90;;;;;;5075298;28;20067;-80
2022/11/26 05:26:08;;;;;;;24.83;12.02;;;2.40;99.90;;;;;;5086314;28;20051;-78
2022/11/26 05:28:34;;;;;;;25.83;13.38;;;2.50;99.90;;;;;;5091365;28;20035;-78
2022/11/26 05:31:02;;;;;;;36.95;17.08;;;2.50;99.90;;;;;;5089623;28;20035;-78
2022/11/26 05:33:29;;;;;;;27.52;12.18;;;2.50;99.90;;;;;;5070770;28;20048;-79
2022/11/26 05:35:55;;;;;;;20.98;12.30;;;2.50;99.90;;;;;;5070517;28;20033;-78
2022/11/26 05:38:22;;;;;;;18.65;9.07;;;2.50;99.90;;;;;;5071785;28;20033;-78
2022/11/26 05:40:48;;;;;;;15.23;8.02;;;2.60;99.90;;;;;;5071213;28;20031;-78
2022/11/26 05:43:14;;;;;;;19.60;9.77;;;2.60;99.90;;;;;;5065255;28;20037;-78
2022/11/26 05:45:40;;;;;;;27.67;16.20;;;2.70;99.90;;;;;;5070485;28;20035;-78
2022/11/26 05:48:06;;;;;;;29.23;13.98;;;2.70;99.90;;;;;;5089485;28;20028;-78
2022/11/26 05:50:33;;;;;;;22.15;11.93;;;2.70;99.90;;;;;;5089773;28;20028;-78
2022/11/26 05:52:59;;;;;;;22.73;10.02;;;2.80;99.90;;;;;;5070304;28;20044;-78
2022/11/26 05:55:25;;;;;;;17.50;9.25;;;2.80;99.90;;;;;;5051503;28;20036;-78
2022/11/26 05:57:52;;;;;;;20.52;10.80;;;2.80;99.90;;;;;;5070525;28;20052;-78
2022/11/26 06:00:18;;;;;;;19.63;10.50;;;2.80;99.90;;;;;;5082365;28;20439;-78
2022/11/26 06:02:44;;;;;;;21.52;11.35;;;2.70;99.90;;;;;;5073209;28;20040;-80
2022/11/26 06:05:12;;;;;;;21.02;10.23;;;2.70;99.90;;;;;;5079425;28;20031;-78
2022/11/26 06:07:38;;;;;;;20.95;9.68;;;2.80;99.90;;;;;;5071497;28;20040;-78
2022/11/26 06:10:05;;;;;;;17.63;9.38;;;2.80;99.90;;;;;;5070983;28;20115;-78
2022/11/26 06:12:31;;;;;;;24.83;10.80;;;2.70;99.90;;;;;;5071386;28;20032;-78
2022/11/26 06:14:57;;;;;;;15.90;10.07;;;2.80;99.90;;;;;;5084540;28;20059;-78
2022/11/26 06:17:24;;;;;;;25.50;9.88;;;2.80;99.90;;;;;;5084549;28;20032;-78
2022/11/26 06:19:51;;;;;;;16.83;9.05;;;2.80;99.90;;;;;;5071616;28;20029;-78
2022/11/26 06:22:17;;;;;;;25.15;11.63;;;2.90;99.90;;;;;;5071626;28;20036;-77
2022/11/26 06:24:43;;;;;;;20.63;9.80;;;3.00;99.90;;;;;;5079202;28;20041;-78
2022/11/26 06:27:09;;;;;;;17.52;9.48;;;3.00;99.90;;;;;;5096155;28;20047;-78
2022/11/26 06:29:35;;;;;;;19.10;10.52;;;2.90;99.90;;;;;;5083552;28;20107;-79
2022/11/26 06:32:02;;;;;;;24.55;12.82;;;2.90;99.90;;;;;;5074628;28;20031;-78
2022/11/26 06:34:28;;;;;;;20.35;10.88;;;2.80;99.90;;;;;;5070132;28;20028;-78
2022/11/26 06:36:54;;;;;;;23.50;12.52;;;2.70;99.90;;;;;;5088894;28;20048;-78
2022/11/26 06:39:20;;;;;;;22.83;12.63;;;2.60;99.90;;;;;;5074922;28;20035;-79
2022/11/26 06:41:46;;;;;;;27.98;13.90;;;2.60;99.90;;;;;;5079918;28;20036;-81
2022/11/26 06:44:13;;;;;;;26.20;14.40;;;2.60;99.90;;;;;;5073072;28;20036;-76
2022/11/26 06:46:39;;;;;;;29.75;13.38;;;2.60;99.90;;;;;;5088625;28;20453;-76
2022/11/26 06:49:05;;;;;;;24.17;14.27;;;2.60;99.90;;;;;;5074162;28;20029;-76
2022/11/26 06:51:31;;;;;;;27.50;16.77;;;2.70;99.90;;;;;;5080314;28;20028;-76
2022/11/26 06:53:58;;;;;;;24.67;14.73;;;2.80;99.90;;;;;;5083633;28;20048;-77
2022/11/26 06:56:24;;;;;;;35.28;23.27;;;3.00;99.90;;;;;;5071212;28;20059;-76
2022/11/26 06:58:53;;;;;;;48.28;26.85;;;3.10;99.90;;;;;;5072619;28;20028;-77
2022/11/26 07:01:25;;;;;;;38.75;23.42;;;3.30;99.90;;;;;;5072813;28;20381;-77
2022/11/26 07:03:52;;;;;;;27.35;17.13;;;3.20;99.90;;;;;;5067465;28;20056;-76
2022/11/26 07:06:26;;;;;;;27.48;15.50;;;3.10;99.90;;;;;;5071219;28;20025;-76
2022/11/26 07:08:54;;;;;;;26.63;14.05;;;3.10;99.90;;;;;;5073868;28;20028;-77
2022/11/26 07:11:21;;;;;;;30.33;14.60;;;3.00;99.90;;;;;;5067807;28;20044;-76
2022/11/26 07:13:48;;;;;;;27.75;12.90;;;2.90;99.90;;;;;;5072674;28;20049;-78
2022/11/26 07:16:14;;;;;;;30.27;14.93;;;3.00;99.90;;;;;;5073201;28;20037;-76
2022/11/26 07:18:40;;;;;;;35.47;18.10;;;3.00;99.90;;;;;;5073813;28;20040;-77
2022/11/26 07:21:12;;;;;;;30.35;15.82;;;3.00;99.90;;;;;;5072098;28;20209;-76
2022/11/26 07:23:39;;;;;;;34.95;17.02;;;3.00;99.90;;;;;;5071681;28;20041;-77
2022/11/26 07:26:06;;;;;;;35.42;17.85;;;2.90;99.90;;;;;;5071655;28;20044;-77
2022/11/26 07:28:33;;;;;;;27.30;15.98;;;2.90;99.90;;;;;;5072392;28;20063;-76
2022/11/26 07:31:01;;;;;;;30.23;16.27;;;3.00;99.90;;;;;;5071605;28;20067;-76
2022/11/26 07:33:28;;;;;;;25.30;15.07;;;3.00;99.90;;;;;;5071809;28;20413;-77
2022/11/26 07:35:58;;;;;;;32.45;17.52;;;3.00;99.90;;;;;;5075074;28;20028;-76
2022/11/26 07:38:24;;;;;;;29.13;16.90;;;3.10;99.90;;;;;;5077577;28;20029;-77
2022/11/26 07:40:51;;;;;;;23.95;14.43;;;3.10;99.90;;;;;;5069121;28;20028;-79
2022/11/26 07:43:17;;;;;;;29.45;14.52;;;3.10;99.90;;;;;;5068663;28;20055;-77
2022/11/26 07:45:43;;;;;;;28.35;15.07;;;3.10;99.90;;;;;;5072528;28;20032;-76
2022/11/26 07:48:09;;;;;;;24.67;13.60;;;3.10;99.90;;;;;;5078630;28;20115;-76
2022/11/26 07:50:35;;;;;;;24.05;13.25;;;3.10;99.90;;;;;;5079341;28;20028;-77
2022/11/26 07:53:01;;;;;;;42.63;22.17;;;3.20;99.90;;;;;;5072681;28;20048;-76
2022/11/26 07:55:27;;;;;;;47.38;25.52;;;3.30;99.90;;;;;;5070681;28;20063;-77
2022/11/26 07:57:54;;;;;;;45.05;21.80;;;3.30;99.90;;;;;;5065795;28;20044;-77
2022/11/26 08:00:20;;;;;;;33.97;16.65;;;3.40;99.90;;;;;;5073166;28;20478;-76
2022/11/26 08:02:46;;;;;;;36.53;15.02;;;3.40;99.90;;;;;;5078875;28;20028;-76
2022/11/26 08:05:13;;;;;;;39.25;15.30;;;3.40;99.90;;;;;;5090503;28;20267;-76
2022/11/26 08:07:39;;;;;;;31.92;16.05;;;3.40;99.90;;;;;;5072600;28;20032;-76
2022/11/26 08:10:05;;;;;;;28.83;14.60;;;3.50;99.90;;;;;;5086452;28;20033;-77
2022/11/26 08:12:32;;;;;;;29.27;16.33;;;3.50;99.90;;;;;;5075744;28;20048;-76
2022/11/26 08:14:58;;;;;;;36.70;20.50;;;3.60;99.90;;;;;;5068867;28;20033;-76
2022/11/26 08:17:24;;;;;;;36.45;21.10;;;3.60;99.90;;;;;;5076530;28;20032;-77
2022/11/26 08:19:50;;;;;;;38.95;18.75;;;3.70;99.90;;;;;;5073439;28;20416;-79
2022/11/26 08:22:16;;;;;;;30.38;17.02;;;3.80;99.90;;;;;;5072226;28;20032;-76
2022/11/26 08:24:42;;;;;;;33.20;17.20;;;3.80;99.90;;;;;;5080422;28;20033;-76
2022/11/26 08:27:09;;;;;;;30.02;16.08;;;3.90;99.90;;;;;;5089758;28;20028;-76
2022/11/26 08:29:36;;;;;;;34.38;20.05;;;4.10;99.90;;;;;;5092184;28;20040;-76
2022/11/26 08:32:02;;;;;;;32.63;19.88;;;4.20;99.90;;;;;;5090080;28;20480;-77
2022/11/26 08:34:29;;;;;;;42.65;22.88;;;4.50;99.90;;;;;;5074117;28;20044;-79
2022/11/26 08:36:55;;;;;;;36.72;19.23;;;4.70;99.90;;;;;;5068746;28;20036;-81
2022/11/26 08:39:21;;;;;;;36.90;18.08;;;4.80;99.90;;;;;;5072745;28;20056;-77
2022/11/26 08:41:47;;;;;;;28.42;17.02;;;4.90;99.90;;;;;;5070936;28;20032;-77
2022/11/26 08:44:13;;;;;;;29.40;14.70;;;5.00;99.90;;;;;;5089328;28;20028;-79
2022/11/26 08:46:40;;;;;;;24.38;16.70;;;5.20;99.90;;;;;;5070397;28;20060;-77
2022/11/26 08:49:10;;;;;;;26.65;15.85;;;5.20;99.90;;;;;;5064468;28;20028;-77
2022/11/26 08:51:37;;;;;;;24.58;14.57;;;5.30;99.90;;;;;;5071300;28;20025;-77
2022/11/26 08:54:03;;;;;;;27.42;14.75;;;5.40;99.90;;;;;;5076178;28;20031;-77
2022/11/26 08:56:30;;;;;;;27.63;15.40;;;5.50;99.90;;;;;;5087815;28;20032;-77
2022/11/26 08:58:56;;;;;;;34.67;17.83;;;5.70;99.90;;;;;;5090353;28;20035;-81
2022/11/26 09:01:27;;;;;;;29.20;16.20;;;5.90;99.90;;;;;;5085627;28;20024;-78
2022/11/26 09:03:56;;;;;;;26.73;15.65;;;5.90;99.90;;;;;;5072965;28;20025;-81
2022/11/26 09:06:25;;;;;;;21.50;11.02;;;6.00;99.90;;;;;;5073676;28;20431;-79
2022/11/26 09:11:40;;;;;;;22.00;10.15;;;6.00;99.90;;;;;;5090907;28;20480;-79
2022/11/26 09:14:07;;;;;;;20.08;9.68;;;6.00;99.90;;;;;;5068612;28;20044;-79
2022/11/26 09:16:33;;;;;;;22.95;12.15;;;6.00;99.90;;;;;;5075015;28;20024;-81
2022/11/26 09:19:01;;;;;;;18.48;10.15;;;6.00;99.90;;;;;;5070225;28;20033;-79
2022/11/26 09:21:28;;;;;;;15.00;8.18;;;5.90;99.90;;;;;;5072276;28;20028;-79
2022/11/26 09:23:54;;;;;;;14.00;7.85;;;6.00;99.90;;;;;;5069479;28;20473;-80
2022/11/26 09:26:21;;;;;;;16.67;8.80;;;6.00;99.90;;;;;;5075549;28;20024;-79
2022/11/26 09:28:48;;;;;;;13.93;8.75;;;6.00;99.90;;;;;;5079662;28;20044;-79
2022/11/26 09:31:15;;;;;;;14.40;8.60;;;6.00;99.90;;;;;;5070863;28;20195;-79
2022/11/26 09:33:42;;;;;;;12.65;7.30;;;6.00;99.90;;;;;;5071907;28;20040;-80
2022/11/26 09:36:12;;;;;;;14.63;7.38;;;6.00;99.90;;;;;;5069546;28;20047;-78
2022/11/26 09:38:39;;;;;;;14.68;6.82;;;6.00;99.90;;;;;;5084711;28;20461;-79
2022/11/26 09:41:30;;;;;;;12.85;6.85;;;6.10;99.90;;;;;;5077388;28;20041;-79
2022/11/26 09:43:56;;;;;;;12.15;5.78;;;6.10;99.90;;;;;;5075012;28;20032;-81
2022/11/26 09:46:30;;;;;;;12.40;6.25;;;6.10;99.90;;;;;;5087850;28;20047;-78
2022/11/26 09:48:59;;;;;;;15.80;6.45;;;6.10;99.90;;;;;;5070578;28;20032;-81
2022/11/26 09:51:26;;;;;;;12.98;6.95;;;6.10;99.90;;;;;;5075987;28;20036;-78
2022/11/26 09:53:53;;;;;;;18.25;10.43;;;6.20;99.90;;;;;;5076664;28;20040;-78
2022/11/26 09:56:23;;;;;;;18.70;9.23;;;6.30;99.90;;;;;;5073176;28;20028;-78
2022/11/26 09:58:56;;;;;;;17.27;8.40;;;6.30;99.90;;;;;;5069743;28;20033;-78
2022/11/26 10:01:23;;;;;;;13.25;7.13;;;6.40;99.90;;;;;;5070319;28;20032;-78
2022/11/26 10:03:50;;;;;;;16.13;8.73;;;6.40;99.90;;;;;;5071624;28;20044;-77
2022/11/26 10:06:33;;;;;;;21.02;11.02;;;6.50;99.90;;;;;;5082114;28;20519;-79
2022/11/26 10:09:33;;;;;;;25.25;12.43;;;6.50;99.90;;;;;;5071558;28;20077;-81
2022/11/26 10:12:03;;;;;;;22.70;13.20;;;6.70;99.90;;;;;;5082836;28;20389;-81
2022/11/26 10:14:37;;;;;;;26.83;14.68;;;7.00;99.90;;;;;;5074570;28;20381;-75
2022/11/26 10:17:26;;;;;;;30.75;15.20;;;7.10;99.90;;;;;;5090296;28;20044;-77
2022/11/26 10:20:13;;;;;;;32.45;16.50;;;7.20;99.90;;;;;;5094820;28;20035;-77
2022/11/26 10:22:47;;;;;;;31.15;14.63;;;7.20;99.90;;;;;;5072725;28;20017;-77
2022/11/26 10:25:18;;;;;;;32.53;17.92;;;7.10;99.90;;;;;;5072956;28;20040;-77
2022/11/26 10:27:46;;;;;;;28.77;16.05;;;7.10;99.90;;;;;;5088994;28;20028;-77
2022/11/26 10:30:19;;;;;;;31.25;17.33;;;7.10;99.90;;;;;;5075914;28;20056;-76
2022/11/26 10:32:47;;;;;;;24.33;15.13;;;7.10;99.90;;;;;;5079178;28;20036;-76
2022/11/26 10:35:16;;;;;;;28.77;17.02;;;7.20;99.90;;;;;;5074424;28;20055;-77
2022/11/26 10:37:43;;;;;;;31.10;15.85;;;7.40;99.90;;;;;;5079535;28;20040;-76
2022/11/26 10:40:16;;;;;;;27.60;15.35;;;7.50;99.90;;;;;;5095452;28;20039;-76
2022/11/26 10:43:04;;;;;;;27.08;15.07;;;7.60;98.00;;;;;;5091208;28;20505;-76
2022/11/26 10:45:44;;;;;;;31.30;16.45;;;7.70;94.90;;;;;;5074941;28;20032;-76
2022/11/26 10:48:22;;;;;;;26.25;14.80;;;7.80;94.10;;;;;;5074800;28;20028;-77
2022/11/26 10:51:17;;;;;;;30.95;15.18;;;7.90;86.20;;;;;;5089088;28;20032;-76
2022/11/26 10:53:53;;;;;;;27.30;16.05;;;7.80;87.60;;;;;;5070891;28;20036;-76
2022/11/26 10:56:24;;;;;;;21.50;12.90;;;7.80;85.90;;;;;;5073821;28;20040;-76
2022/11/26 10:58:52;;;;;;;30.63;15.73;;;7.70;81.70;;;;;;5081495;28;20047;-76
2022/11/26 11:01:19;;;;;;;24.08;13.90;;;7.80;85.90;;;;;;5093766;28;20401;-78
2022/11/26 11:03:57;;;;;;;26.95;15.32;;;7.80;83.70;;;;;;5072762;28;20071;-77
2022/11/26 11:06:27;;;;;;;28.75;14.23;;;7.70;84.20;;;;;;5073588;28;20085;-77
2022/11/26 11:08:54;;;;;;;25.38;14.73;;;7.70;90.20;;;;;;5074551;28;20043;-77
2022/11/26 11:11:28;;;;;;;30.17;15.95;;;7.80;91.80;;;;;;5078420;28;20029;-77
2022/11/26 11:13:55;;;;;;;26.15;16.02;;;7.90;90.10;;;;;;5092484;28;20043;-77
2022/11/26 11:16:28;;;;;;;36.78;16.45;;;7.80;88.70;;;;;;5093027;28;20032;-77
2022/11/26 11:19:00;;;;;;;25.38;14.80;;;7.90;90.00;;;;;;5085195;28;20051;-76
2022/11/26 11:21:33;;;;;;;28.58;16.50;;;7.90;81.60;;;;;;5082254;28;20035;-77
2022/11/26 11:24:13;;;;;;;33.90;16.75;;;7.80;81.10;;;;;;5077322;28;20055;-79
2022/11/26 11:26:53;;;;;;;27.75;15.02;;;7.70;83.40;;;;;;5087788;28;20486;-77
2022/11/26 11:29:28;;;;;;;30.20;14.65;;;7.80;87.90;;;;;;5080739;28;20036;-77
2022/11/26 11:31:56;;;;;;;28.13;14.95;;;7.70;84.40;;;;;;5069409;28;20371;-77
2022/11/26 11:34:26;;;;;;;22.70;14.10;;;7.70;86.00;;;;;;5071898;28;20047;-76
2022/11/26 11:37:02;;;;;;;27.48;14.98;;;7.70;84.80;;;;;;5081310;28;20423;-77
2022/11/26 11:39:30;;;;;;;31.80;15.13;;;7.80;86.30;;;;;;5079238;28;20032;-75
2022/11/26 11:41:58;;;;;;;24.45;14.40;;;7.80;85.60;;;;;;5075818;28;20028;-79
2022/11/26 11:44:38;;;;;;;32.00;15.77;;;7.90;87.50;;;;;;5091179;28;20028;-77
2022/11/26 11:47:19;;;;;;;30.17;15.10;;;7.90;88.20;;;;;;5076179;28;20059;-78
2022/11/26 11:50:07;;;;;;;27.05;16.88;;;8.00;78.70;;;;;;5078390;28;20461;-79
2022/11/26 11:52:51;;;;;;;28.48;15.30;;;8.10;85.40;;;;;;5084663;28;20052;-83
2022/11/26 11:55:36;;;;;;;29.75;15.85;;;8.00;76.10;;;;;;5075843;28;20047;-83
2022/11/26 11:58:50;;;;;;;24.10;15.20;;;8.00;79.70;;;;;;5071665;28;20055;-84
2022/11/26 12:01:44;;;;;;;34.05;16.75;;;8.00;82.60;;;;;;5057829;28;20045;-83
2022/11/26 12:04:30;;;;;;;28.15;15.05;;;8.00;87.20;;;;;;5075952;28;20036;-84
2022/11/26 12:07:32;;;;;;;21.88;13.63;;;7.90;90.80;;;;;;5059833;28;20041;-85
2022/11/26 12:10:17;;;;;;;20.08;12.38;;;7.90;89.50;;;;;;5082365;28;20521;-85
2022/11/26 12:12:52;;;;;;;24.77;15.45;;;7.90;83.10;;;;;;5084667;28;20036;-84
2022/11/26 12:15:34;;;;;;;23.85;12.93;;;7.90;85.20;;;;;;5082644;28;20032;-85
2022/11/26 12:18:25;;;;;;;20.60;8.23;;;7.90;89.00;;;;;;5074672;28;20477;-87
2022/11/26 12:20:57;;;;;;;;;;;8.00;65.60;;;;;;5071185;28;20401;-85
2022/11/26 12:23:33;;;;;;;13.93;6.70;;;8.10;67.20;;;;;;5071170;28;20460;-85
2022/11/26 12:26:12;;;;;;;11.43;6.38;;;8.10;65.00;;;;;;5075743;28;20473;-86
2022/11/26 12:28:55;;;;;;;13.25;8.27;;;8.20;62.80;;;;;;5076459;28;20473;-86
2022/11/26 12:31:33;;;;;;;17.45;8.02;;;8.20;65.30;;;;;;5081062;28;20040;-87
2022/11/26 12:34:13;;;;;;;10.88;7.05;;;8.30;64.80;;;;;;5080400;28;20037;-89
2022/11/26 12:37:02;;;;;;;16.80;7.22;;;8.20;57.70;;;;;;5084718;28;20040;-87
2022/11/26 12:39:48;;;;;;;12.55;6.97;;;8.10;59.60;;;;;;5086374;28;20037;-87
2022/11/26 12:42:29;;;;;;;12.52;8.20;;;8.10;61.40;;;;;;5069727;28;20048;-88
2022/11/26 12:45:01;;;;;;;;;;;8.00;64.60;;;;;;5088203;28;20458;-85
2022/11/26 12:47:31;;;;;;;13.68;7.18;;;8.10;65.30;;;;;;5084291;28;20357;-88
2022/11/26 12:50:03;;;;;;;12.65;8.13;;;7.90;62.20;;;;;;5074500;28;20033;-88
2022/11/26 12:52:51;;;;;;;14.32;7.70;;;8.00;68.70;;;;;;5092465;28;20020;-86
2022/11/26 12:55:29;;;;;;;18.45;8.77;;;7.90;65.10;;;;;;5079780;28;20504;-88
2022/11/26 12:58:14;;;;;;;18.55;9.30;;;7.80;65.30;;;;;;5074033;28;20036;-86
2022/11/26 13:00:40;;;;;;;17.77;8.80;;;7.80;68.50;;;;;;5080796;28;20044;-86